createdAt,value
2017-10-23T00:01:04.465Z,1011.86
2017-10-23T00:02:13.828Z,1011.85
2017-10-23T00:03:22.844Z,1011.82
2017-10-23T00:04:31.502Z,1011.87
2017-10-23T00:05:40.523Z,1011.85
2017-10-23T00:06:49.185Z,1011.89
2017-10-23T00:07:58.202Z,1011.86
2017-10-23T00:09:07.195Z,1011.85
2017-10-23T00:10:16.537Z,1011.83
2017-10-23T00:11:25.540Z,1011.81
2017-10-23T00:12:34.236Z,1011.83
2017-10-23T00:13:43.899Z,1011.85
2017-10-23T00:14:53.231Z,1011.85
2017-10-23T00:16:02.541Z,1011.82
2017-10-23T00:17:11.521Z,1011.86
2017-10-23T00:18:20.514Z,1011.85
2017-10-23T00:19:29.182Z,1011.87
2017-10-23T00:20:38.161Z,1011.88
2017-10-23T00:21:47.151Z,1011.86
2017-10-23T00:22:56.478Z,1011.91
2017-10-23T00:24:05.788Z,1011.93
2017-10-23T00:25:14.776Z,1011.89
2017-10-23T00:26:23.444Z,1011.97
2017-10-23T00:27:32.102Z,1011.96
2017-10-23T00:28:41.444Z,1011.96
2017-10-23T00:29:50.097Z,1011.96
2017-10-23T00:30:58.763Z,1011.96
2017-10-23T00:32:07.771Z,1011.94
2017-10-23T00:33:16.799Z,1011.96
2017-10-23T00:34:25.446Z,1011.95
2017-10-23T00:35:34.772Z,1011.96
2017-10-23T00:36:43.772Z,1011.94
2017-10-23T00:37:52.459Z,1011.93
2017-10-23T00:39:01.133Z,1011.97
2017-10-23T00:40:10.499Z,1011.98
2017-10-23T00:41:19.183Z,1011.97
2017-10-23T00:42:29.500Z,1011.99
2017-10-23T00:43:38.181Z,1011.95
2017-10-23T00:44:47.175Z,1011.99
2017-10-23T00:45:55.855Z,1011.96
2017-10-23T00:47:04.866Z,1012.01
2017-10-23T00:48:14.175Z,1011.97
2017-10-23T00:49:23.532Z,1011.95
2017-10-23T00:50:32.837Z,1011.98
2017-10-23T00:51:41.860Z,1011.96
2017-10-23T00:52:50.836Z,1011.98
2017-10-23T00:53:59.530Z,1012.03
2017-10-23T00:55:08.871Z,1011.99
2017-10-23T00:56:17.917Z,1012.03
2017-10-23T00:57:26.924Z,1012.04
2017-10-23T00:58:36.253Z,1012.03
2017-10-23T00:59:45.590Z,1011.98
2017-10-23T01:00:55.215Z,1012
2017-10-23T01:02:04.858Z,1012.04
2017-10-23T01:03:14.515Z,1012.04
2017-10-23T01:04:23.178Z,1012.05
2017-10-23T01:05:32.191Z,1012.01
2017-10-23T01:06:41.206Z,1012.04
2017-10-23T01:07:50.871Z,1011.99
2017-10-23T01:09:00.525Z,1012.01
2017-10-23T01:10:09.514Z,1012.02
2017-10-23T01:11:19.153Z,1012.01
2017-10-23T01:12:28.145Z,1012.01
2017-10-23T01:13:37.780Z,1012.01
2017-10-23T01:14:47.409Z,1011.97
2017-10-23T01:15:56.069Z,1011.99
2017-10-23T01:17:05.087Z,1011.99
2017-10-23T01:18:14.084Z,1012.04
2017-10-23T01:19:23.416Z,1012.08
2017-10-23T01:20:32.420Z,1012.1
2017-10-23T01:21:41.118Z,1012.03
2017-10-23T01:22:49.800Z,1012.08
2017-10-23T01:23:58.824Z,1012.08
2017-10-23T01:25:08.180Z,1012
2017-10-23T01:26:17.500Z,1012.02
2017-10-23T01:27:26.818Z,1011.99
2017-10-23T01:28:35.519Z,1012
2017-10-23T01:29:44.846Z,1012.01
2017-10-23T01:30:54.172Z,1011.95
2017-10-23T01:32:03.163Z,1011.97
2017-10-23T01:33:12.531Z,1011.91
2017-10-23T01:34:21.904Z,1011.93
2017-10-23T01:35:31.252Z,1011.96
2017-10-23T01:36:40.305Z,1011.93
2017-10-23T01:37:49.380Z,1011.91
2017-10-23T01:38:58.377Z,1011.93
2017-10-23T01:40:07.399Z,1011.96
2017-10-23T01:41:16.475Z,1011.98
2017-10-23T01:42:25.144Z,1011.98
2017-10-23T01:43:33.799Z,1012
2017-10-23T01:44:43.105Z,1012.04
2017-10-23T01:45:52.780Z,1012.04
2017-10-23T01:47:02.104Z,1012.05
2017-10-23T01:48:11.131Z,1012.03
2017-10-23T01:49:20.874Z,1012.08
2017-10-23T01:50:29.581Z,1012.03
2017-10-23T01:51:38.294Z,1012.04
2017-10-23T01:52:46.955Z,1012.02
2017-10-23T01:53:55.993Z,1012.02
2017-10-23T01:55:05.352Z,1012.02
2017-10-23T01:56:15.056Z,1012.01
2017-10-23T01:57:24.401Z,1012.05
2017-10-23T01:58:33.388Z,1012.05
2017-10-23T01:59:43.063Z,1012.07
2017-10-23T02:00:52.391Z,1012.06
2017-10-23T02:02:01.077Z,1012.06
2017-10-23T02:03:09.763Z,1012.1
2017-10-23T02:04:18.435Z,1012.04
2017-10-23T02:05:27.781Z,1012.06
2017-10-23T02:06:36.766Z,1012.05
2017-10-23T02:07:45.775Z,1012.03
2017-10-23T02:08:55.118Z,1012.01
2017-10-23T02:10:04.134Z,1012.02
2017-10-23T02:11:13.797Z,1012.03
2017-10-23T02:12:22.455Z,1012.01
2017-10-23T02:13:31.123Z,1012.04
2017-10-23T02:14:39.780Z,1012.05
2017-10-23T02:15:49.476Z,1012.07
2017-10-23T02:16:59.133Z,1012.08
2017-10-23T02:18:07.782Z,1012.09
2017-10-23T02:19:17.120Z,1012.05
2017-10-23T02:20:26.793Z,1012.08
2017-10-23T02:21:35.486Z,1012.08
2017-10-23T02:22:44.820Z,1012.08
2017-10-23T02:23:53.478Z,1012.12
2017-10-23T02:25:02.471Z,1012.11
2017-10-23T02:26:11.504Z,1012.08
2017-10-23T02:27:20.488Z,1012.12
2017-10-23T02:28:29.140Z,1012.07
2017-10-23T02:29:37.851Z,1012.1
2017-10-23T02:30:46.543Z,1012.14
2017-10-23T02:31:55.522Z,1012.12
2017-10-23T02:33:04.509Z,1012.18
2017-10-23T02:34:13.532Z,1012.16
2017-10-23T02:35:22.527Z,1012.17
2017-10-23T02:36:32.537Z,1012.15
2017-10-23T02:37:41.209Z,1012.17
2017-10-23T02:38:50.217Z,1012.23
2017-10-23T02:39:58.873Z,1012.22
2017-10-23T02:41:07.559Z,1012.18
2017-10-23T02:42:16.892Z,1012.24
2017-10-23T02:43:25.896Z,1012.25
2017-10-23T02:44:34.908Z,1012.3
2017-10-23T02:45:44.565Z,1012.28
2017-10-23T02:46:53.581Z,1012.25
2017-10-23T02:48:02.595Z,1012.3
2017-10-23T02:49:11.612Z,1012.3
2017-10-23T02:50:20.622Z,1012.33
2017-10-23T02:51:29.641Z,1012.3
2017-10-23T02:52:38.975Z,1012.26
2017-10-23T02:53:47.960Z,1012.27
2017-10-23T02:54:57.607Z,1012.28
2017-10-23T02:56:06.958Z,1012.3
2017-10-23T02:57:15.925Z,1012.34
2017-10-23T02:58:24.592Z,1012.35
2017-10-23T02:59:33.572Z,1012.36
2017-10-23T03:00:42.894Z,1012.39
2017-10-23T03:01:51.903Z,1012.36
2017-10-23T03:03:01.564Z,1012.42
2017-10-23T03:04:10.564Z,1012.45
2017-10-23T03:05:19.560Z,1012.41
2017-10-23T03:06:28.565Z,1012.44
2017-10-23T03:07:37.560Z,1012.47
2017-10-23T03:08:46.599Z,1012.46
2017-10-23T03:09:55.636Z,1012.48
2017-10-23T03:11:04.967Z,1012.48
2017-10-23T03:12:14.162Z,1012.5
2017-10-23T03:13:23.493Z,1012.51
2017-10-23T03:14:32.504Z,1012.52
2017-10-23T03:15:41.195Z,1012.51
2017-10-23T03:16:50.507Z,1012.53
2017-10-23T03:17:59.500Z,1012.56
2017-10-23T03:19:08.813Z,1012.51
2017-10-23T03:20:17.874Z,1012.49
2017-10-23T03:21:26.866Z,1012.52
2017-10-23T03:22:36.215Z,1012.48
2017-10-23T03:23:45.599Z,1012.52
2017-10-23T03:24:54.287Z,1012.55
2017-10-23T03:26:03.616Z,1012.59
2017-10-23T03:27:12.619Z,1012.59
2017-10-23T03:28:21.333Z,1012.63
2017-10-23T03:29:30.307Z,1012.63
2017-10-23T03:30:39.027Z,1012.64
2017-10-23T03:31:48.367Z,1012.64
2017-10-23T03:32:57.380Z,1012.67
2017-10-23T03:34:06.396Z,1012.69
2017-10-23T03:35:15.081Z,1012.67
2017-10-23T03:36:23.801Z,1012.73
2017-10-23T03:37:32.792Z,1012.75
2017-10-23T03:38:41.842Z,1012.72
2017-10-23T03:39:50.851Z,1012.72
2017-10-23T03:41:00.478Z,1012.72
2017-10-23T03:42:10.456Z,1012.71
2017-10-23T03:43:19.460Z,1012.68
2017-10-23T03:44:28.775Z,1012.69
2017-10-23T03:45:37.758Z,1012.75
2017-10-23T03:46:47.110Z,1012.75
2017-10-23T03:47:56.458Z,1012.74
2017-10-23T03:49:05.168Z,1012.73
2017-10-23T03:50:14.210Z,1012.76
2017-10-23T03:51:23.878Z,1012.77
2017-10-23T03:52:33.524Z,1012.73
2017-10-23T03:53:42.236Z,1012.76
2017-10-23T03:54:50.930Z,1012.77
2017-10-23T03:55:59.643Z,1012.77
2017-10-23T03:57:08.324Z,1012.74
2017-10-23T03:58:17.688Z,1012.72
2017-10-23T03:59:27.353Z,1012.73
2017-10-23T04:00:36.700Z,1012.72
2017-10-23T04:01:46.053Z,1012.71
2017-10-23T04:02:55.056Z,1012.76
2017-10-23T04:04:04.166Z,1012.8
2017-10-23T04:05:13.167Z,1012.85
2017-10-23T04:06:21.851Z,1012.86
2017-10-23T04:07:30.535Z,1012.87
2017-10-23T04:08:40.194Z,1012.89
2017-10-23T04:09:49.525Z,1012.89
2017-10-23T04:10:58.515Z,1012.91
2017-10-23T04:12:07.500Z,1012.89
2017-10-23T04:13:16.838Z,1012.9
2017-10-23T04:14:26.158Z,1012.91
2017-10-23T04:15:35.147Z,1012.87
2017-10-23T04:16:44.150Z,1012.85
2017-10-23T04:17:53.453Z,1012.87
2017-10-23T04:19:02.447Z,1012.88
2017-10-23T04:20:12.423Z,1012.88
2017-10-23T04:21:21.417Z,1012.89
2017-10-23T04:22:30.083Z,1012.9
2017-10-23T04:23:38.773Z,1012.9
2017-10-23T04:24:48.194Z,1012.95
2017-10-23T04:25:57.170Z,1012.92
2017-10-23T04:27:07.202Z,1012.94
2017-10-23T04:28:16.885Z,1012.95
2017-10-23T04:29:25.602Z,1012.92
2017-10-23T04:30:34.953Z,1012.95
2017-10-23T04:31:44.271Z,1012.95
2017-10-23T04:32:53.582Z,1012.93
2017-10-23T04:34:02.593Z,1012.94
2017-10-23T04:35:11.916Z,1012.93
2017-10-23T04:36:21.238Z,1012.97
2017-10-23T04:37:30.219Z,1013
2017-10-23T04:38:38.868Z,1013.01
2017-10-23T04:39:47.866Z,1012.99
2017-10-23T04:40:57.515Z,1012.99
2017-10-23T04:42:06.203Z,1013.03
2017-10-23T04:43:14.869Z,1013.06
2017-10-23T04:44:24.187Z,1013.02
2017-10-23T04:45:32.868Z,1013
2017-10-23T04:46:41.878Z,1013.02
2017-10-23T04:47:51.569Z,1013.02
2017-10-23T04:49:00.231Z,1013.03
2017-10-23T04:50:09.605Z,1013
2017-10-23T04:51:18.602Z,1013.05
2017-10-23T04:52:27.597Z,1013.03
2017-10-23T04:53:36.633Z,1013.02
2017-10-23T04:54:45.619Z,1013
2017-10-23T04:55:54.304Z,1013
2017-10-23T04:57:03.625Z,1013
2017-10-23T04:58:12.338Z,1013.02
2017-10-23T04:59:21.354Z,1012.99
2017-10-23T05:00:30.665Z,1013.06
2017-10-23T05:01:40.016Z,1013
2017-10-23T05:02:49.377Z,1013.05
2017-10-23T05:03:58.360Z,1013.06
2017-10-23T05:05:07.365Z,1013.11
2017-10-23T05:06:16.350Z,1013.05
2017-10-23T05:07:26.148Z,1013.08
2017-10-23T05:08:35.253Z,1013.04
2017-10-23T05:09:43.904Z,1013.07
2017-10-23T05:10:52.670Z,1013.06
2017-10-23T05:12:01.996Z,1013.04
2017-10-23T05:13:11.009Z,1013.08
2017-10-23T05:14:20.685Z,1013.1
2017-10-23T05:15:29.664Z,1013.11
2017-10-23T05:16:39.024Z,1013.09
2017-10-23T05:17:48.716Z,1013.09
2017-10-23T05:18:58.430Z,1013.08
2017-10-23T05:20:07.098Z,1013.09
2017-10-23T05:21:16.101Z,1013.09
2017-10-23T05:22:25.425Z,1013.04
2017-10-23T05:23:35.074Z,1013.04
2017-10-23T05:24:44.742Z,1013.02
2017-10-23T05:25:53.738Z,1013.07
2017-10-23T05:27:03.400Z,1013.07
2017-10-23T05:28:13.054Z,1013.12
2017-10-23T05:29:22.708Z,1013.05
2017-10-23T05:30:31.379Z,1013.1
2017-10-23T05:31:40.720Z,1013.1
2017-10-23T05:32:49.742Z,1013.1
2017-10-23T05:33:58.788Z,1013.1
2017-10-23T05:35:08.106Z,1013.1
2017-10-23T05:36:17.101Z,1013.09
2017-10-23T05:37:26.103Z,1013.13
2017-10-23T05:38:35.088Z,1013.1
2017-10-23T05:39:44.111Z,1013.16
2017-10-23T05:40:53.114Z,1013.09
2017-10-23T05:42:02.113Z,1013.11
2017-10-23T05:43:11.439Z,1013.06
2017-10-23T05:44:20.078Z,1013.02
2017-10-23T05:45:29.061Z,1013.1
2017-10-23T05:46:38.371Z,1013.11
2017-10-23T05:47:48.026Z,1013.07
2017-10-23T05:48:57.699Z,1013.1
2017-10-23T05:50:07.042Z,1013.12
2017-10-23T05:51:16.374Z,1013.15
2017-10-23T05:52:25.077Z,1013.14
2017-10-23T05:53:34.065Z,1013.15
2017-10-23T05:54:42.721Z,1013.16
2017-10-23T05:55:52.362Z,1013.2
2017-10-23T05:57:01.360Z,1013.21
2017-10-23T05:58:10.676Z,1013.21
2017-10-23T05:59:19.374Z,1013.24
2017-10-23T06:00:28.036Z,1013.23
2017-10-23T06:01:37.051Z,1013.27
2017-10-23T06:02:46.056Z,1013.34
2017-10-23T06:03:55.131Z,1013.36
2017-10-23T06:05:04.232Z,1013.35
2017-10-23T06:06:13.598Z,1013.39
2017-10-23T06:07:22.591Z,1013.39
2017-10-23T06:08:31.903Z,1013.4
2017-10-23T06:09:40.890Z,1013.43
2017-10-23T06:10:50.231Z,1013.47
2017-10-23T06:11:59.237Z,1013.53
2017-10-23T06:13:08.551Z,1013.54
2017-10-23T06:14:17.869Z,1013.53
2017-10-23T06:15:26.853Z,1013.57
2017-10-23T06:16:35.839Z,1013.56
2017-10-23T06:17:45.148Z,1013.53
2017-10-23T06:18:54.503Z,1013.56
2017-10-23T06:20:03.226Z,1013.56
2017-10-23T06:21:12.257Z,1013.68
2017-10-23T06:22:21.607Z,1013.67
2017-10-23T06:23:30.945Z,1013.68
2017-10-23T06:24:40.249Z,1013.7
2017-10-23T06:25:49.917Z,1013.67
2017-10-23T06:26:59.000Z,1013.7
2017-10-23T06:28:08.312Z,1013.67
2017-10-23T06:29:17.299Z,1013.71
2017-10-23T06:30:26.289Z,1013.7
2017-10-23T06:31:35.308Z,1013.7
2017-10-23T06:32:44.306Z,1013.75
2017-10-23T06:33:53.628Z,1013.76
2017-10-23T06:35:02.959Z,1013.78
2017-10-23T06:36:11.612Z,1013.73
2017-10-23T06:37:20.624Z,1013.79
2017-10-23T06:38:29.717Z,1013.79
2017-10-23T06:39:39.714Z,1013.79
2017-10-23T06:40:49.066Z,1013.8
2017-10-23T06:41:58.048Z,1013.77
2017-10-23T06:43:07.360Z,1013.82
2017-10-23T06:44:16.076Z,1013.77
2017-10-23T06:45:25.418Z,1013.8
2017-10-23T06:46:34.734Z,1013.75
2017-10-23T06:47:43.713Z,1013.76
2017-10-23T06:48:53.020Z,1013.79
2017-10-23T06:50:01.730Z,1013.81
2017-10-23T06:51:10.723Z,1013.81
2017-10-23T06:52:19.415Z,1013.79
2017-10-23T06:53:29.046Z,1013.73
2017-10-23T06:54:38.693Z,1013.76
2017-10-23T06:55:47.368Z,1013.75
2017-10-23T06:56:56.050Z,1013.77
2017-10-23T06:58:05.049Z,1013.78
2017-10-23T06:59:14.076Z,1013.81
2017-10-23T07:00:23.149Z,1013.85
2017-10-23T07:01:31.807Z,1013.8
2017-10-23T07:02:40.788Z,1013.82
2017-10-23T07:03:50.108Z,1013.83
2017-10-23T07:04:59.755Z,1013.77
2017-10-23T07:06:09.065Z,1013.81
2017-10-23T07:07:18.370Z,1013.76
2017-10-23T07:08:27.463Z,1013.8
2017-10-23T07:09:36.114Z,1013.72
2017-10-23T07:10:45.415Z,1013.76
2017-10-23T07:11:54.094Z,1013.79
2017-10-23T07:13:02.867Z,1013.82
2017-10-23T07:14:12.889Z,1013.82
2017-10-23T07:15:21.578Z,1013.84
2017-10-23T07:16:30.561Z,1013.82
2017-10-23T07:17:39.624Z,1013.8
2017-10-23T07:18:48.672Z,1013.8
2017-10-23T07:19:57.702Z,1013.81
2017-10-23T07:21:07.361Z,1013.81
2017-10-23T07:22:16.007Z,1013.83
2017-10-23T07:23:25.332Z,1013.82
2017-10-23T07:24:34.648Z,1013.83
2017-10-23T07:25:44.618Z,1013.84
2017-10-23T07:26:53.358Z,1013.79
2017-10-23T07:28:02.905Z,1013.87
2017-10-23T07:29:11.581Z,1013.84
2017-10-23T07:30:20.240Z,1013.83
2017-10-23T07:31:28.937Z,1013.84
2017-10-23T07:32:37.928Z,1013.87
2017-10-23T07:33:46.579Z,1013.85
2017-10-23T07:34:55.961Z,1013.82
2017-10-23T07:36:05.257Z,1013.82
2017-10-23T07:37:14.671Z,1013.91
2017-10-23T07:38:23.666Z,1013.9
2017-10-23T07:39:32.500Z,1013.91
2017-10-23T07:40:41.130Z,1013.9
2017-10-23T07:41:50.446Z,1013.91
2017-10-23T07:42:59.426Z,1013.95
2017-10-23T07:44:08.070Z,1013.94
2017-10-23T07:45:17.725Z,1013.96
2017-10-23T07:46:26.695Z,1013.96
2017-10-23T07:47:36.663Z,1013.98
2017-10-23T07:48:46.356Z,1013.98
2017-10-23T07:49:55.339Z,1013.96
2017-10-23T07:51:05.119Z,1014
2017-10-23T07:52:14.205Z,1013.98
2017-10-23T07:53:23.521Z,1013.95
2017-10-23T07:54:32.229Z,1013.95
2017-10-23T07:55:41.983Z,1013.97
2017-10-23T07:56:51.296Z,1013.99
2017-10-23T07:58:00.681Z,1013.95
2017-10-23T07:59:10.791Z,1013.99
2017-10-23T08:00:20.500Z,1013.99
2017-10-23T08:01:29.815Z,1013.99
2017-10-23T08:02:39.568Z,1014.01
2017-10-23T08:03:49.745Z,1014.09
2017-10-23T08:04:58.730Z,1014.09
2017-10-23T08:06:07.701Z,1014.05
2017-10-23T08:07:17.037Z,1014.07
2017-10-23T08:08:25.704Z,1014.06
2017-10-23T08:09:35.028Z,1014.04
2017-10-23T08:10:43.675Z,1014.1
2017-10-23T08:11:53.625Z,1014.1
2017-10-23T08:13:02.610Z,1014.16
2017-10-23T08:14:11.272Z,1014.11
2017-10-23T08:15:20.911Z,1014.1
2017-10-23T08:16:29.902Z,1014.16
2017-10-23T08:17:38.579Z,1014.16
2017-10-23T08:18:47.900Z,1014.18
2017-10-23T08:19:56.906Z,1014.18
2017-10-23T08:21:05.886Z,1014.18
2017-10-23T08:22:14.874Z,1014.2
2017-10-23T08:23:23.878Z,1014.19
2017-10-23T08:24:32.996Z,1014.17
2017-10-23T08:25:42.052Z,1014.24
2017-10-23T08:26:51.030Z,1014.25
2017-10-23T08:28:00.030Z,1014.27
2017-10-23T08:29:09.004Z,1014.28
2017-10-23T08:30:18.649Z,1014.27
2017-10-23T08:31:27.992Z,1014.29
2017-10-23T08:32:36.656Z,1014.34
2017-10-23T08:33:45.978Z,1014.31
2017-10-23T08:34:55.368Z,1014.34
2017-10-23T08:36:04.350Z,1014.27
2017-10-23T08:37:13.389Z,1014.32
2017-10-23T08:38:22.047Z,1014.31
2017-10-23T08:39:31.676Z,1014.29
2017-10-23T08:40:40.668Z,1014.32
2017-10-23T08:41:49.976Z,1014.35
2017-10-23T08:42:59.282Z,1014.33
2017-10-23T08:44:08.968Z,1014.32
2017-10-23T08:45:18.281Z,1014.31
2017-10-23T08:46:27.258Z,1014.31
2017-10-23T08:47:37.667Z,1014.3
2017-10-23T08:48:46.648Z,1014.27
2017-10-23T08:49:55.315Z,1014.29
2017-10-23T08:51:04.006Z,1014.32
2017-10-23T08:52:12.652Z,1014.34
2017-10-23T08:53:22.649Z,1014.34
2017-10-23T08:54:31.318Z,1014.32
2017-10-23T08:55:40.281Z,1014.33
2017-10-23T08:56:49.923Z,1014.33
2017-10-23T08:57:58.906Z,1014.36
2017-10-23T08:59:08.592Z,1014.34
2017-10-23T09:00:17.591Z,1014.37
2017-10-23T09:01:26.911Z,1014.34
2017-10-23T09:02:35.946Z,1014.29
2017-10-23T09:03:44.613Z,1014.36
2017-10-23T09:04:53.586Z,1014.38
2017-10-23T09:06:02.303Z,1014.35
2017-10-23T09:07:11.305Z,1014.34
2017-10-23T09:08:20.288Z,1014.32
2017-10-23T09:09:29.326Z,1014.39
2017-10-23T09:10:38.004Z,1014.39
2017-10-23T09:11:47.333Z,1014.4
2017-10-23T09:12:56.004Z,1014.41
2017-10-23T09:14:04.650Z,1014.4
2017-10-23T09:15:13.683Z,1014.38
2017-10-23T09:16:22.335Z,1014.42
2017-10-23T09:17:31.462Z,1014.44
2017-10-23T09:18:40.467Z,1014.43
2017-10-23T09:19:49.445Z,1014.47
2017-10-23T09:20:58.479Z,1014.48
2017-10-23T09:22:07.511Z,1014.48
2017-10-23T09:23:16.162Z,1014.42
2017-10-23T09:24:25.252Z,1014.43
2017-10-23T09:25:34.272Z,1014.4
2017-10-23T09:26:43.322Z,1014.41
2017-10-23T09:27:53.038Z,1014.39
2017-10-23T09:29:02.350Z,1014.46
2017-10-23T09:30:11.983Z,1014.4
2017-10-23T09:31:21.000Z,1014.38
2017-10-23T09:32:29.656Z,1014.36
2017-10-23T09:33:38.629Z,1014.37
2017-10-23T09:34:47.292Z,1014.39
2017-10-23T09:35:56.946Z,1014.36
2017-10-23T09:37:05.944Z,1014.41
2017-10-23T09:38:15.598Z,1014.39
2017-10-23T09:39:25.250Z,1014.43
2017-10-23T09:40:34.547Z,1014.39
2017-10-23T09:41:44.883Z,1014.47
2017-10-23T09:42:53.846Z,1014.42
2017-10-23T09:44:02.821Z,1014.42
2017-10-23T09:45:12.121Z,1014.38
2017-10-23T09:46:21.124Z,1014.45
2017-10-23T09:47:30.177Z,1014.46
2017-10-23T09:48:39.159Z,1014.46
2017-10-23T09:49:48.137Z,1014.43
2017-10-23T09:50:56.783Z,1014.43
2017-10-23T09:52:06.407Z,1014.5
2017-10-23T09:53:15.398Z,1014.49
2017-10-23T09:54:24.037Z,1014.5
2017-10-23T09:55:33.670Z,1014.49
2017-10-23T09:56:42.317Z,1014.52
2017-10-23T09:57:51.317Z,1014.55
2017-10-23T09:59:00.953Z,1014.56
2017-10-23T10:00:10.589Z,1014.55
2017-10-23T10:01:19.967Z,1014.58
2017-10-23T10:02:29.286Z,1014.61
2017-10-23T10:03:38.916Z,1014.61
2017-10-23T10:04:49.064Z,1014.56
2017-10-23T10:05:58.068Z,1014.55
2017-10-23T10:07:07.380Z,1014.56
2017-10-23T10:08:16.022Z,1014.6
2017-10-23T10:09:25.357Z,1014.66
2017-10-23T10:10:34.011Z,1014.66
2017-10-23T10:11:42.979Z,1014.61
2017-10-23T10:12:51.653Z,1014.6
2017-10-23T10:14:00.649Z,1014.66
2017-10-23T10:15:09.630Z,1014.58
2017-10-23T10:16:18.294Z,1014.61
2017-10-23T10:17:27.308Z,1014.59
2017-10-23T10:18:36.703Z,1014.61
2017-10-23T10:19:46.345Z,1014.62
2017-10-23T10:20:55.673Z,1014.63
2017-10-23T10:22:05.011Z,1014.68
2017-10-23T10:23:14.027Z,1014.65
2017-10-23T10:24:23.681Z,1014.66
2017-10-23T10:25:33.034Z,1014.64
2017-10-23T10:26:42.052Z,1014.65
2017-10-23T10:27:51.039Z,1014.64
2017-10-23T10:29:00.036Z,1014.62
2017-10-23T10:30:09.346Z,1014.66
2017-10-23T10:31:18.351Z,1014.65
2017-10-23T10:32:27.344Z,1014.6
2017-10-23T10:33:36.029Z,1014.64
2017-10-23T10:34:45.333Z,1014.67
2017-10-23T10:35:54.316Z,1014.65
2017-10-23T10:37:03.726Z,1014.67
2017-10-23T10:38:12.472Z,1014.63
2017-10-23T10:39:21.456Z,1014.63
2017-10-23T10:40:30.091Z,1014.68
2017-10-23T10:41:39.840Z,1014.65
2017-10-23T10:42:48.857Z,1014.71
2017-10-23T10:43:58.839Z,1014.71
2017-10-23T10:45:07.487Z,1014.66
2017-10-23T10:46:16.472Z,1014.65
2017-10-23T10:47:25.474Z,1014.67
2017-10-23T10:48:34.529Z,1014.68
2017-10-23T10:49:43.362Z,1014.68
2017-10-23T10:50:52.012Z,1014.68
2017-10-23T10:52:01.071Z,1014.69
2017-10-23T10:53:10.062Z,1014.72
2017-10-23T10:54:19.661Z,1014.69
2017-10-23T10:55:28.679Z,1014.7
2017-10-23T10:56:38.441Z,1014.72
2017-10-23T10:57:47.328Z,1014.76
2017-10-23T10:58:56.859Z,1014.74
2017-10-23T11:00:05.851Z,1014.74
2017-10-23T11:01:16.053Z,1014.76
2017-10-23T11:02:24.819Z,1014.68
2017-10-23T11:03:34.161Z,1014.73
2017-10-23T11:04:43.139Z,1014.74
2017-10-23T11:05:52.147Z,1014.76
2017-10-23T11:07:01.495Z,1014.79
2017-10-23T11:08:11.128Z,1014.77
2017-10-23T11:09:20.828Z,1014.76
2017-10-23T11:10:29.821Z,1014.78
2017-10-23T11:11:38.475Z,1014.78
2017-10-23T11:12:48.114Z,1014.78
2017-10-23T11:13:56.802Z,1014.81
2017-10-23T11:15:05.823Z,1014.78
2017-10-23T11:16:15.912Z,1014.79
2017-10-23T11:17:25.053Z,1014.78
2017-10-23T11:18:33.892Z,1014.77
2017-10-23T11:19:42.890Z,1014.73
2017-10-23T11:20:51.568Z,1014.76
2017-10-23T11:22:01.549Z,1014.71
2017-10-23T11:23:10.451Z,1014.73
2017-10-23T11:24:20.852Z,1014.75
2017-10-23T11:25:30.451Z,1014.72
2017-10-23T11:26:40.096Z,1014.74
2017-10-23T11:27:50.264Z,1014.8
2017-10-23T11:28:59.567Z,1014.75
2017-10-23T11:30:08.981Z,1014.75
2017-10-23T11:31:17.646Z,1014.73
2017-10-23T11:32:27.706Z,1014.75
2017-10-23T11:33:36.962Z,1014.75
2017-10-23T11:34:46.292Z,1014.72
2017-10-23T11:35:55.621Z,1014.69
2017-10-23T11:37:05.040Z,1014.68
2017-10-23T11:38:14.748Z,1014.71
2017-10-23T11:39:24.647Z,1014.72
2017-10-23T11:40:35.044Z,1014.73
2017-10-23T11:41:44.694Z,1014.7
2017-10-23T11:42:54.020Z,1014.71
2017-10-23T11:44:03.084Z,1014.72
2017-10-23T11:45:12.395Z,1014.69
2017-10-23T11:46:21.063Z,1014.69
2017-10-23T11:47:30.069Z,1014.69
2017-10-23T11:48:39.055Z,1014.69
2017-10-23T11:49:48.051Z,1014.68
2017-10-23T11:50:56.717Z,1014.71
2017-10-23T11:52:05.711Z,1014.69
2017-10-23T11:53:14.367Z,1014.66
2017-10-23T11:54:23.375Z,1014.63
2017-10-23T11:55:32.693Z,1014.66
2017-10-23T11:56:42.007Z,1014.65
2017-10-23T11:57:51.335Z,1014.68
2017-10-23T11:59:00.645Z,1014.68
2017-10-23T12:00:09.317Z,1014.68
2017-10-23T12:01:18.618Z,1014.66
2017-10-23T12:02:27.614Z,1014.65
2017-10-23T12:03:36.616Z,1014.67
2017-10-23T12:04:46.591Z,1014.71
2017-10-23T12:05:55.931Z,1014.65
2017-10-23T12:07:05.560Z,1014.62
2017-10-23T12:08:14.991Z,1014.7
2017-10-23T12:09:24.769Z,1014.69
2017-10-23T12:10:33.852Z,1014.64
2017-10-23T12:11:43.212Z,1014.69
2017-10-23T12:12:52.535Z,1014.66
2017-10-23T12:14:01.532Z,1014.7
2017-10-23T12:15:10.524Z,1014.66
2017-10-23T12:16:45.203Z,1014.64
2017-10-23T12:17:54.550Z,1014.64
2017-10-23T12:19:03.589Z,1014.68
2017-10-23T12:20:12.581Z,1014.65
2017-10-23T12:21:21.898Z,1014.62
2017-10-23T12:22:31.209Z,1014.64
2017-10-23T12:23:40.504Z,1014.62
2017-10-23T12:24:49.814Z,1014.67
2017-10-23T12:25:58.802Z,1014.65
2017-10-23T12:27:08.153Z,1014.67
2017-10-23T12:28:16.850Z,1014.65
2017-10-23T12:29:26.176Z,1014.64
2017-10-23T12:30:35.636Z,1014.65
2017-10-23T12:31:45.211Z,1014.72
2017-10-23T12:32:54.623Z,1014.72
2017-10-23T12:34:03.569Z,1014.73
2017-10-23T12:35:13.554Z,1014.67
2017-10-23T12:36:22.714Z,1014.69
2017-10-23T12:37:31.871Z,1014.62
2017-10-23T12:38:40.894Z,1014.69
2017-10-23T12:39:49.637Z,1014.66
2017-10-23T12:40:58.777Z,1014.65
2017-10-23T12:42:08.894Z,1014.67
2017-10-23T12:43:17.685Z,1014.65
2017-10-23T12:44:27.260Z,1014.65
2017-10-23T12:45:37.686Z,1014.63
2017-10-23T12:46:46.991Z,1014.7
2017-10-23T12:47:56.668Z,1014.72
2017-10-23T12:49:06.749Z,1014.68
2017-10-23T12:50:17.241Z,1014.72
2017-10-23T12:51:26.958Z,1014.7
2017-10-23T12:52:36.161Z,1014.68
2017-10-23T12:53:45.563Z,1014.71
2017-10-23T12:54:54.674Z,1014.64
2017-10-23T12:56:04.380Z,1014.7
2017-10-23T12:57:14.103Z,1014.67
2017-10-23T12:58:23.218Z,1014.69
2017-10-23T12:59:32.467Z,1014.66
2017-10-23T13:00:42.483Z,1014.69
2017-10-23T13:01:52.217Z,1014.68
2017-10-23T13:03:00.951Z,1014.7
2017-10-23T13:04:10.181Z,1014.68
2017-10-23T13:05:19.056Z,1014.64
2017-10-23T13:06:28.184Z,1014.68
2017-10-23T13:07:39.223Z,1014.7
2017-10-23T13:08:48.438Z,1014.7
2017-10-23T13:09:57.435Z,1014.68
2017-10-23T13:11:06.658Z,1014.69
2017-10-23T13:12:17.079Z,1014.72
2017-10-23T13:13:26.271Z,1014.73
2017-10-23T13:14:35.044Z,1014.69
2017-10-23T13:15:44.983Z,1014.7
2017-10-23T13:16:54.433Z,1014.71
2017-10-23T13:18:04.082Z,1014.7
2017-10-23T13:19:13.076Z,1014.73
2017-10-23T13:20:22.733Z,1014.74
2017-10-23T13:21:31.707Z,1014.74
2017-10-23T13:22:40.688Z,1014.73
2017-10-23T13:23:50.007Z,1014.69
2017-10-23T13:24:59.669Z,1014.73
2017-10-23T13:26:08.673Z,1014.79
2017-10-23T13:27:17.661Z,1014.77
2017-10-23T13:28:26.331Z,1014.82
2017-10-23T13:29:35.005Z,1014.77
2017-10-23T13:30:43.989Z,1014.81
2017-10-23T13:31:52.993Z,1014.82
2017-10-23T13:33:02.406Z,1014.83
2017-10-23T13:34:11.715Z,1014.83
2017-10-23T13:35:21.013Z,1014.85
2017-10-23T13:36:30.001Z,1014.83
2017-10-23T13:37:39.337Z,1014.84
2017-10-23T13:38:48.349Z,1014.8
2017-10-23T13:39:57.050Z,1014.85
2017-10-23T13:41:06.361Z,1014.85
2017-10-23T13:42:16.053Z,1014.87
2017-10-23T13:43:25.048Z,1014.87
2017-10-23T13:44:34.168Z,1014.87
2017-10-23T13:45:43.142Z,1014.86
2017-10-23T13:46:51.820Z,1014.92
2017-10-23T13:48:01.860Z,1014.9
2017-10-23T13:49:11.343Z,1014.92
2017-10-23T13:50:20.435Z,1014.94
2017-10-23T13:51:30.179Z,1014.9
2017-10-23T13:52:39.840Z,1014.92
2017-10-23T13:53:49.545Z,1014.92
2017-10-23T13:54:59.021Z,1014.93
2017-10-23T13:56:07.878Z,1014.97
2017-10-23T13:57:17.412Z,1014.97
2017-10-23T13:58:26.400Z,1014.91
2017-10-23T13:59:35.398Z,1014.94
2017-10-23T14:00:44.395Z,1014.92